Skylax — DC7459 — position and weather

sailwx.info

Track history (hours):
 
Tides and Currents Weather Stations Pressure Air Temp Water Temp Dewpoint Dewpoint Depression Visibility Wind Speed Wind Dir Waves Ship Positions

Skylax

Last reported at 2017-Sep-01 09:55 UTC. Time now 2017-Nov-21 12:13 UTC.
Position N 37°02' E 025°05'.
Warning: this ship's position is months out of date.

Length 8 m.

Type: Pleasure craft. MMSI: 211639810.

Date/timePositionNaut miles runAvg speedWind from/ knotsBaromVisibWave heightAir tempDewpointWater temp
2017-Sep-01 09:55N 37°02' E 025°05'2 4.4
2017-Sep-01 09:31N 37°03' E 025°06'8 0.2
2017-Aug-30 07:59N 37°09' E 025°13'1 2.9
2017-Aug-30 07:30N 37°08' E 025°14'  
2017-Aug-27 14:48N 37°09' E 025°14'1 1.7
2017-Aug-27 14:30N 37°08' E 025°14'3 5.2
2017-Aug-27 14:00N 37°11' E 025°15'3 5.3
2017-Aug-27 13:30N 37°14' E 025°16'3 6.8
2017-Aug-27 13:00N 37°17' E 025°17'3 6.8
2017-Aug-27 12:30N 37°20' E 025°19'3 6.5
2017-Aug-27 12:00N 37°23' E 025°20'2 0.1
2017-Aug-26 13:37N 37°25' E 025°21'0 0.0
2017-Aug-26 13:25N 37°25' E 025°21'0 0.0
2017-Aug-26 12:58N 37°25' E 025°21'0 0.0
2017-Aug-26 12:25N 37°25' E 025°21'0 0.0
2017-Aug-26 11:58N 37°25' E 025°21'0 0.0
2017-Aug-26 11:25N 37°25' E 025°21'0 0.1
2017-Aug-26 09:25N 37°25' E 025°21'  
2017-Aug-23 11:21N 37°25' E 025°21'0 0.0
2017-Aug-23 10:57N 37°25' E 025°21'0 0.0
2017-Aug-23 10:30N 37°25' E 025°21'0 0.0
2017-Aug-23 10:00N 37°25' E 025°21'0 0.0
2017-Aug-23 09:30N 37°25' E 025°21'0 0.0
2017-Aug-23 08:57N 37°25' E 025°21'0 0.0
2017-Aug-23 08:30N 37°25' E 025°21'0 0.0
2017-Aug-23 08:00N 37°25' E 025°21'0 0.0
2017-Aug-23 07:30N 37°25' E 025°21'0 0.0
2017-Aug-23 07:00N 37°25' E 025°21'0 0.0
2017-Aug-23 06:30N 37°25' E 025°21'0 0.0
2017-Aug-23 06:00N 37°25' E 025°21'0 0.0
2017-Aug-23 05:30N 37°25' E 025°21'0 0.0
2017-Aug-22 13:53N 37°25' E 025°21'  
Track history (hours):
 
Tides and Currents Weather Stations Pressure Air Temp Water Temp Dewpoint Dewpoint Depression Visibility Wind Speed Wind Dir Waves Ship Positions

Skylax

Last reported at 2017-Sep-01 09:55 UTC. Time now 2017-Nov-21 12:13 UTC.
Position N 37°02' E 025°05'.
Warning: this ship's position is months out of date.

Length 8 m.

Type: Pleasure craft. MMSI: 211639810.

Date/timePositionNaut miles runAvg speedWind from/ knotsBaromVisibWave heightAir tempDewpointWater temp
2017-Sep-01 09:55N 37°02' E 025°05'2 4.4
2017-Sep-01 09:31N 37°03' E 025°06'8 0.2
2017-Aug-30 07:59N 37°09' E 025°13'1 2.9
2017-Aug-30 07:30N 37°08' E 025°14'  
2017-Aug-27 14:48N 37°09' E 025°14'1 1.7
2017-Aug-27 14:30N 37°08' E 025°14'3 5.2
2017-Aug-27 14:00N 37°11' E 025°15'3 5.3
2017-Aug-27 13:30N 37°14' E 025°16'3 6.8
2017-Aug-27 13:00N 37°17' E 025°17'3 6.8
2017-Aug-27 12:30N 37°20' E 025°19'3 6.5
2017-Aug-27 12:00N 37°23' E 025°20'2 0.1
2017-Aug-26 13:37N 37°25' E 025°21'0 0.0
2017-Aug-26 13:25N 37°25' E 025°21'0 0.0
2017-Aug-26 12:58N 37°25' E 025°21'0 0.0
2017-Aug-26 12:25N 37°25' E 025°21'0 0.0
2017-Aug-26 11:58N 37°25' E 025°21'0 0.0
2017-Aug-26 11:25N 37°25' E 025°21'0 0.1
2017-Aug-26 09:25N 37°25' E 025°21'  
2017-Aug-23 11:21N 37°25' E 025°21'0 0.0
2017-Aug-23 10:57N 37°25' E 025°21'0 0.0
2017-Aug-23 10:30N 37°25' E 025°21'0 0.0
2017-Aug-23 10:00N 37°25' E 025°21'0 0.0
2017-Aug-23 09:30N 37°25' E 025°21'0 0.0
2017-Aug-23 08:57N 37°25' E 025°21'0 0.0
2017-Aug-23 08:30N 37°25' E 025°21'0 0.0
2017-Aug-23 08:00N 37°25' E 025°21'0 0.0
2017-Aug-23 07:30N 37°25' E 025°21'0 0.0
2017-Aug-23 07:00N 37°25' E 025°21'0 0.0
2017-Aug-23 06:30N 37°25' E 025°21'0 0.0
2017-Aug-23 06:00N 37°25' E 025°21'0 0.0
2017-Aug-23 05:30N 37°25' E 025°21'0 0.0
2017-Aug-22 13:53N 37°25' E 025°21'  

Dump ship's entire track history